sensor_id;sensor_type;location;lat;lon;timestamp;pressure;altitude;pressure_sealevel;temperature;humidity
36726;BME280;44936;52.086;5.150;2023-04-19T00:00:46;103341.16;;;8.92;100.00
36726;BME280;44936;52.086;5.150;2023-04-19T00:03:11;103357.56;;;9.05;100.00
36726;BME280;44936;52.086;5.150;2023-04-19T00:05:38;103364.00;;;9.12;100.00
36726;BME280;44936;52.086;5.150;2023-04-19T00:08:04;103368.88;;;9.22;100.00
36726;BME280;44936;52.086;5.150;2023-04-19T00:10:30;103356.28;;;9.15;100.00
36726;BME280;44936;52.086;5.150;2023-04-19T00:12:55;103357.19;;;9.16;100.00
36726;BME280;44936;52.086;5.150;2023-04-19T00:15:22;103361.00;;;9.22;100.00
36726;BME280;44936;52.086;5.150;2023-04-19T00:17:47;103365.28;;;9.20;100.00
36726;BME280;44936;52.086;5.150;2023-04-19T00:20:12;103363.56;;;9.21;100.00
36726;BME280;44936;52.086;5.150;2023-04-19T00:22:38;103373.97;;;9.19;100.00
36726;BME280;44936;52.086;5.150;2023-04-19T00:25:04;103390.31;;;9.15;100.00
36726;BME280;44936;52.086;5.150;2023-04-19T00:27:30;103379.78;;;9.14;100.00
36726;BME280;44936;52.086;5.150;2023-04-19T00:29:55;103374.41;;;9.11;100.00
36726;BME280;44936;52.086;5.150;2023-04-19T00:32:22;103382.47;;;9.15;100.00
36726;BME280;44936;52.086;5.150;2023-04-19T00:34:47;103396.69;;;9.20;100.00
36726;BME280;44936;52.086;5.150;2023-04-19T00:37:13;103393.09;;;9.18;100.00
36726;BME280;44936;52.086;5.150;2023-04-19T00:39:38;103392.34;;;9.21;100.00
36726;BME280;44936;52.086;5.150;2023-04-19T00:42:04;103404.69;;;9.23;100.00
36726;BME280;44936;52.086;5.150;2023-04-19T00:44:29;103397.28;;;9.15;100.00
36726;BME280;44936;52.086;5.150;2023-04-19T00:46:55;103404.31;;;9.16;100.00
36726;BME280;44936;52.086;5.150;2023-04-19T00:49:22;103393.16;;;9.02;100.00
36726;BME280;44936;52.086;5.150;2023-04-19T00:51:49;103386.78;;;8.97;100.00
36726;BME280;44936;52.086;5.150;2023-04-19T00:54:14;103381.59;;;8.80;100.00
36726;BME280;44936;52.086;5.150;2023-04-19T00:56:40;103387.16;;;8.87;100.00
36726;BME280;44936;52.086;5.150;2023-04-19T00:59:06;103351.13;;;8.65;100.00
36726;BME280;44936;52.086;5.150;2023-04-19T01:01:32;103397.22;;;8.79;100.00
36726;BME280;44936;52.086;5.150;2023-04-19T01:04:01;103405.34;;;8.84;100.00
36726;BME280;44936;52.086;5.150;2023-04-19T01:06:27;103394.88;;;8.84;100.00
36726;BME280;44936;52.086;5.150;2023-04-19T01:08:54;103395.75;;;8.84;100.00
36726;BME280;44936;52.086;5.150;2023-04-19T01:11:21;103397.56;;;8.85;100.00
36726;BME280;44936;52.086;5.150;2023-04-19T01:13:46;103395.44;;;8.78;100.00
36726;BME280;44936;52.086;5.150;2023-04-19T01:16:12;103382.94;;;8.72;100.00
36726;BME280;44936;52.086;5.150;2023-04-19T01:18:37;103386.44;;;8.73;100.00
36726;BME280;44936;52.086;5.150;2023-04-19T01:21:05;103387.25;;;8.72;100.00
36726;BME280;44936;52.086;5.150;2023-04-19T01:23:31;103383.44;;;8.65;100.00
36726;BME280;44936;52.086;5.150;2023-04-19T01:25:57;103366.63;;;8.60;100.00
36726;BME280;44936;52.086;5.150;2023-04-19T01:28:22;103386.03;;;8.65;100.00
36726;BME280;44936;52.086;5.150;2023-04-19T01:30:48;103380.81;;;8.65;100.00
36726;BME280;44936;52.086;5.150;2023-04-19T01:33:15;103389.66;;;8.67;100.00
36726;BME280;44936;52.086;5.150;2023-04-19T01:35:41;103398.34;;;8.66;100.00
36726;BME280;44936;52.086;5.150;2023-04-19T01:38:06;103378.19;;;8.65;100.00
36726;BME280;44936;52.086;5.150;2023-04-19T01:40:31;103394.47;;;8.76;100.00
36726;BME280;44936;52.086;5.150;2023-04-19T01:42:57;103386.16;;;8.67;100.00
36726;BME280;44936;52.086;5.150;2023-04-19T01:45:22;103398.13;;;8.79;100.00
36726;BME280;44936;52.086;5.150;2023-04-19T01:47:48;103384.97;;;8.78;100.00
36726;BME280;44936;52.086;5.150;2023-04-19T01:50:13;103385.13;;;8.81;100.00
36726;BME280;44936;52.086;5.150;2023-04-19T01:52:38;103391.56;;;8.88;100.00
36726;BME280;44936;52.086;5.150;2023-04-19T01:55:04;103359.31;;;8.71;100.00
36726;BME280;44936;52.086;5.150;2023-04-19T01:57:29;103384.53;;;8.87;100.00
36726;BME280;44936;52.086;5.150;2023-04-19T01:59:56;103376.00;;;8.91;100.00
36726;BME280;44936;52.086;5.150;2023-04-19T02:02:21;103390.22;;;8.96;100.00
36726;BME280;44936;52.086;5.150;2023-04-19T02:04:46;103369.28;;;8.96;100.00
36726;BME280;44936;52.086;5.150;2023-04-19T02:07:11;103377.47;;;9.02;100.00
36726;BME280;44936;52.086;5.150;2023-04-19T02:09:37;103390.19;;;9.12;100.00
36726;BME280;44936;52.086;5.150;2023-04-19T02:12:04;103380.38;;;9.08;100.00
36726;BME280;44936;52.086;5.150;2023-04-19T02:14:29;103382.47;;;9.15;100.00
36726;BME280;44936;52.086;5.150;2023-04-19T02:16:55;103369.31;;;9.14;100.00
36726;BME280;44936;52.086;5.150;2023-04-19T02:19:20;103375.56;;;9.17;100.00
36726;BME280;44936;52.086;5.150;2023-04-19T02:21:46;103382.91;;;9.24;100.00
36726;BME280;44936;52.086;5.150;2023-04-19T02:24:11;103370.59;;;9.22;100.00
36726;BME280;44936;52.086;5.150;2023-04-19T02:26:38;103370.97;;;9.29;100.00
36726;BME280;44936;52.086;5.150;2023-04-19T02:29:03;103369.91;;;9.26;100.00
36726;BME280;44936;52.086;5.150;2023-04-19T02:31:29;103376.19;;;9.29;100.00
36726;BME280;44936;52.086;5.150;2023-04-19T02:33:54;103381.56;;;9.32;100.00
36726;BME280;44936;52.086;5.150;2023-04-19T02:36:19;103379.91;;;9.34;100.00
36726;BME280;44936;52.086;5.150;2023-04-19T02:38:45;103370.97;;;9.29;100.00
36726;BME280;44936;52.086;5.150;2023-04-19T02:41:10;103366.56;;;9.28;100.00
36726;BME280;44936;52.086;5.150;2023-04-19T02:43:36;103384.56;;;9.40;100.00
36726;BME280;44936;52.086;5.150;2023-04-19T02:46:01;103379.41;;;9.42;100.00
36726;BME280;44936;52.086;5.150;2023-04-19T02:48:27;103378.31;;;9.36;100.00
36726;BME280;44936;52.086;5.150;2023-04-19T02:50:52;103386.38;;;9.41;100.00
36726;BME280;44936;52.086;5.150;2023-04-19T02:53:17;103397.81;;;9.43;100.00
36726;BME280;44936;52.086;5.150;2023-04-19T02:55:43;103398.22;;;8.99;100.00
36726;BME280;44936;52.086;5.150;2023-04-19T02:58:08;103398.09;;;9.14;100.00
36726;BME280;44936;52.086;5.150;2023-04-19T03:00:34;103399.91;;;9.32;100.00
36726;BME280;44936;52.086;5.150;2023-04-19T03:02:59;103388.78;;;9.36;100.00
36726;BME280;44936;52.086;5.150;2023-04-19T03:05:26;103359.28;;;9.23;100.00
36726;BME280;44936;52.086;5.150;2023-04-19T03:07:51;103385.31;;;9.38;100.00
36726;BME280;44936;52.086;5.150;2023-04-19T03:10:17;103374.84;;;9.38;100.00
36726;BME280;44936;52.086;5.150;2023-04-19T03:12:42;103379.72;;;9.48;100.00
36726;BME280;44936;52.086;5.150;2023-04-19T03:15:08;103368.84;;;9.40;100.00
36726;BME280;44936;52.086;5.150;2023-04-19T03:17:34;103363.75;;;9.43;100.00
36726;BME280;44936;52.086;5.150;2023-04-19T03:20:00;103378.75;;;9.46;100.00
36726;BME280;44936;52.086;5.150;2023-04-19T03:22:30;103369.28;;;9.49;100.00
36726;BME280;44936;52.086;5.150;2023-04-19T03:24:55;103344.16;;;9.35;100.00
36726;BME280;44936;52.086;5.150;2023-04-19T03:27:21;103368.31;;;9.47;100.00
36726;BME280;44936;52.086;5.150;2023-04-19T03:29:46;103371.22;;;9.53;100.00
36726;BME280;44936;52.086;5.150;2023-04-19T03:32:11;103369.34;;;9.51;100.00
36726;BME280;44936;52.086;5.150;2023-04-19T03:34:37;103353.56;;;9.49;100.00
36726;BME280;44936;52.086;5.150;2023-04-19T03:37:02;103377.66;;;9.60;100.00
36726;BME280;44936;52.086;5.150;2023-04-19T03:39:27;103366.66;;;9.49;100.00
36726;BME280;44936;52.086;5.150;2023-04-19T03:41:53;103368.69;;;9.55;100.00
36726;BME280;44936;52.086;5.150;2023-04-19T03:44:18;103360.59;;;9.50;100.00
36726;BME280;44936;52.086;5.150;2023-04-19T03:46:43;103371.22;;;9.53;100.00
36726;BME280;44936;52.086;5.150;2023-04-19T03:49:10;103393.44;;;9.08;100.00
36726;BME280;44936;52.086;5.150;2023-04-19T03:51:35;103383.59;;;9.02;100.00
36726;BME280;44936;52.086;5.150;2023-04-19T03:54:01;103383.22;;;9.13;100.00
36726;BME280;44936;52.086;5.150;2023-04-19T03:56:26;103384.88;;;9.28;100.00
36726;BME280;44936;52.086;5.150;2023-04-19T03:58:52;103378.38;;;9.20;100.00
36726;BME280;44936;52.086;5.150;2023-04-19T04:01:18;103364.00;;;9.30;100.00
36726;BME280;44936;52.086;5.150;2023-04-19T04:03:44;103360.75;;;9.35;100.00
36726;BME280;44936;52.086;5.150;2023-04-19T04:06:09;103369.81;;;9.42;100.00
36726;BME280;44936;52.086;5.150;2023-04-19T04:08:35;103353.28;;;9.43;100.00
36726;BME280;44936;52.086;5.150;2023-04-19T04:11:00;103359.41;;;9.44;100.00
36726;BME280;44936;52.086;5.150;2023-04-19T04:13:25;103356.13;;;9.48;100.00
36726;BME280;44936;52.086;5.150;2023-04-19T04:15:51;103370.50;;;9.56;100.00
36726;BME280;44936;52.086;5.150;2023-04-19T04:18:16;103366.44;;;9.45;100.00
36726;BME280;44936;52.086;5.150;2023-04-19T04:20:42;103363.63;;;9.40;100.00
36726;BME280;44936;52.086;5.150;2023-04-19T04:23:08;103372.69;;;9.29;100.00
36726;BME280;44936;52.086;5.150;2023-04-19T04:25:35;103376.78;;;9.24;100.00
36726;BME280;44936;52.086;5.150;2023-04-19T04:28:04;103373.78;;;9.16;100.00
36726;BME280;44936;52.086;5.150;2023-04-19T04:30:30;103370.97;;;9.12;100.00
36726;BME280;44936;52.086;5.150;2023-04-19T04:32:56;103371.03;;;9.13;100.00
36726;BME280;44936;52.086;5.150;2023-04-19T04:35:24;103346.63;;;8.96;100.00
36726;BME280;44936;52.086;5.150;2023-04-19T04:37:50;103361.75;;;9.02;100.00
36726;BME280;44936;52.086;5.150;2023-04-19T04:40:18;103356.13;;;8.94;100.00
36726;BME280;44936;52.086;5.150;2023-04-19T04:42:43;103358.13;;;9.00;100.00
36726;BME280;44936;52.086;5.150;2023-04-19T04:45:09;103343.56;;;8.87;100.00
36726;BME280;44936;52.086;5.150;2023-04-19T04:47:35;103352.56;;;8.92;100.00
36726;BME280;44936;52.086;5.150;2023-04-19T04:50:02;103343.41;;;8.84;100.00
36726;BME280;44936;52.086;5.150;2023-04-19T04:52:28;103351.34;;;8.86;100.00
36726;BME280;44936;52.086;5.150;2023-04-19T04:54:53;103344.81;;;8.77;100.00
36726;BME280;44936;52.086;5.150;2023-04-19T04:57:18;103354.53;;;8.80;100.00
36726;BME280;44936;52.086;5.150;2023-04-19T04:59:44;103363.06;;;8.76;100.00
36726;BME280;44936;52.086;5.150;2023-04-19T05:02:12;103360.28;;;8.73;100.00
36726;BME280;44936;52.086;5.150;2023-04-19T05:04:37;103355.31;;;8.61;100.00
36726;BME280;44936;52.086;5.150;2023-04-19T05:07:02;103359.16;;;8.68;100.00
36726;BME280;44936;52.086;5.150;2023-04-19T05:09:28;103363.72;;;8.72;100.00
36726;BME280;44936;52.086;5.150;2023-04-19T05:11:53;103375.97;;;8.73;100.00
36726;BME280;44936;52.086;5.150;2023-04-19T05:14:18;103371.63;;;8.73;100.00
36726;BME280;44936;52.086;5.150;2023-04-19T05:16:44;103375.81;;;8.70;100.00
36726;BME280;44936;52.086;5.150;2023-04-19T05:19:10;103375.81;;;8.70;100.00
36726;BME280;44936;52.086;5.150;2023-04-19T05:21:35;103382.94;;;8.72;100.00
36726;BME280;44936;52.086;5.150;2023-04-19T05:24:00;103374.09;;;8.70;100.00
36726;BME280;44936;52.086;5.150;2023-04-19T05:26:26;103383.44;;;8.65;100.00
36726;BME280;44936;52.086;5.150;2023-04-19T05:28:51;103381.06;;;8.70;100.00
36726;BME280;44936;52.086;5.150;2023-04-19T05:31:16;103382.53;;;8.65;100.00
36726;BME280;44936;52.086;5.150;2023-04-19T05:33:42;103381.63;;;8.64;100.00
36726;BME280;44936;52.086;5.150;2023-04-19T05:36:08;103371.69;;;8.57;100.00
36726;BME280;44936;52.086;5.150;2023-04-19T05:38:33;103388.84;;;8.68;100.00
36726;BME280;44936;52.086;5.150;2023-04-19T05:40:59;103388.59;;;8.64;100.00
36726;BME280;44936;52.086;5.150;2023-04-19T05:43:24;103391.53;;;8.70;100.00
36726;BME280;44936;52.086;5.150;2023-04-19T05:45:49;103368.91;;;8.54;100.00
36726;BME280;44936;52.086;5.150;2023-04-19T05:48:15;103384.50;;;8.69;100.00
36726;BME280;44936;52.086;5.150;2023-04-19T05:50:40;103390.47;;;8.66;100.00
36726;BME280;44936;52.086;5.150;2023-04-19T05:53:05;103368.41;;;8.61;100.00
36726;BME280;44936;52.086;5.150;2023-04-19T05:55:31;103387.13;;;8.69;100.00
36726;BME280;44936;52.086;5.150;2023-04-19T05:57:57;103381.97;;;8.70;100.00
36726;BME280;44936;52.086;5.150;2023-04-19T06:00:23;103359.66;;;8.61;100.00
36726;BME280;44936;52.086;5.150;2023-04-19T06:02:48;103378.38;;;8.68;100.00
36726;BME280;44936;52.086;5.150;2023-04-19T06:05:13;103362.41;;;8.64;100.00
36726;BME280;44936;52.086;5.150;2023-04-19T06:07:39;103361.72;;;8.66;100.00
36726;BME280;44936;52.086;5.150;2023-04-19T06:10:05;103352.78;;;8.63;100.00
36726;BME280;44936;52.086;5.150;2023-04-19T06:12:31;103392.69;;;8.75;100.00
36726;BME280;44936;52.086;5.150;2023-04-19T06:14:56;103380.31;;;8.72;100.00
36726;BME280;44936;52.086;5.150;2023-04-19T06:17:21;103369.91;;;8.74;100.00
36726;BME280;44936;52.086;5.150;2023-04-19T06:19:50;103366.41;;;8.73;100.00
36726;BME280;44936;52.086;5.150;2023-04-19T06:22:15;103358.56;;;8.73;100.00
36726;BME280;44936;52.086;5.150;2023-04-19T06:24:40;103387.81;;;8.83;100.00
36726;BME280;44936;52.086;5.150;2023-04-19T06:27:06;103360.34;;;8.74;100.00
36726;BME280;44936;52.086;5.150;2023-04-19T06:29:31;103370.16;;;8.78;100.00
36726;BME280;44936;52.086;5.150;2023-04-19T06:31:56;103315.41;;;8.65;100.00
36726;BME280;44936;52.086;5.150;2023-04-19T06:34:22;103329.94;;;8.76;100.00
36726;BME280;44936;52.086;5.150;2023-04-19T06:36:47;103321.28;;;8.77;100.00
36726;BME280;44936;52.086;5.150;2023-04-19T06:39:14;103338.19;;;8.84;100.00
36726;BME280;44936;52.086;5.150;2023-04-19T06:41:39;103352.31;;;8.88;100.00
36726;BME280;44936;52.086;5.150;2023-04-19T06:44:04;103339.97;;;8.85;100.00
36726;BME280;44936;52.086;5.150;2023-04-19T06:46:30;103358.69;;;8.93;100.00
36726;BME280;44936;52.086;5.150;2023-04-19T06:48:55;103330.41;;;8.86;100.00
36726;BME280;44936;52.086;5.150;2023-04-19T06:51:20;103295.47;;;8.67;100.00
36726;BME280;44936;52.086;5.150;2023-04-19T06:53:46;103332.19;;;8.87;100.00
36726;BME280;44936;52.086;5.150;2023-04-19T06:56:12;103294.41;;;8.82;100.00
36726;BME280;44936;52.086;5.150;2023-04-19T06:58:37;103381.03;;;9.04;100.00
36726;BME280;44936;52.086;5.150;2023-04-19T07:01:04;103332.66;;;8.96;100.00
36726;BME280;44936;52.086;5.150;2023-04-19T07:03:30;103317.91;;;8.98;100.00
36726;BME280;44936;52.086;5.150;2023-04-19T07:05:56;103355.53;;;9.00;100.00
36726;BME280;44936;52.086;5.150;2023-04-19T07:08:22;103264.16;;;8.87;100.00
36726;BME280;44936;52.086;5.150;2023-04-19T07:10:48;103242.00;;;8.98;100.00
36726;BME280;44936;52.086;5.150;2023-04-19T07:13:13;103254.56;;;9.05;100.00
36726;BME280;44936;52.086;5.150;2023-04-19T07:15:38;103218.69;;;9.02;100.00
36726;BME280;44936;52.086;5.150;2023-04-19T07:18:04;103204.81;;;9.05;100.00
36726;BME280;44936;52.086;5.150;2023-04-19T07:20:29;103185.59;;;9.04;100.00
36726;BME280;44936;52.086;5.150;2023-04-19T07:22:57;103212.22;;;9.14;100.00
36726;BME280;44936;52.086;5.150;2023-04-19T07:25:22;103205.13;;;9.11;100.00
36726;BME280;44936;52.086;5.150;2023-04-19T07:27:48;103188.41;;;9.09;100.00
36726;BME280;44936;52.086;5.150;2023-04-19T07:30:13;103188.84;;;9.18;100.00
36726;BME280;44936;52.086;5.150;2023-04-19T07:32:38;103185.56;;;9.22;100.00
36726;BME280;44936;52.086;5.150;2023-04-19T07:35:04;103197.81;;;9.23;100.00
36726;BME280;44936;52.086;5.150;2023-04-19T07:37:30;103220.97;;;9.33;100.00
36726;BME280;44936;52.086;5.150;2023-04-19T07:39:55;103189.25;;;9.27;100.00
36726;BME280;44936;52.086;5.150;2023-04-19T07:42:20;103179.84;;;9.31;100.00
36726;BME280;44936;52.086;5.150;2023-04-19T07:44:46;103168.19;;;9.24;100.00
36726;BME280;44936;52.086;5.150;2023-04-19T07:47:11;103172.88;;;9.31;100.00
36726;BME280;44936;52.086;5.150;2023-04-19T07:49:36;103187.91;;;9.35;100.00
36726;BME280;44936;52.086;5.150;2023-04-19T07:52:06;103161.28;;;9.26;100.00
36726;BME280;44936;52.086;5.150;2023-04-19T07:54:31;103135.19;;;9.28;100.00
36726;BME280;44936;52.086;5.150;2023-04-19T07:56:57;103160.81;;;9.35;100.00
36726;BME280;44936;52.086;5.150;2023-04-19T07:59:23;103168.88;;;9.40;100.00
36726;BME280;44936;52.086;5.150;2023-04-19T08:01:48;103178.88;;;9.48;100.00
36726;BME280;44936;52.086;5.150;2023-04-19T08:04:14;103154.13;;;9.42;100.00
36726;BME280;44936;52.086;5.150;2023-04-19T08:06:41;103174.66;;;9.52;100.00
36726;BME280;44936;52.086;5.150;2023-04-19T08:09:06;103161.50;;;9.50;100.00
36726;BME280;44936;52.086;5.150;2023-04-19T08:11:32;103170.38;;;9.54;100.00
36726;BME280;44936;52.086;5.150;2023-04-19T08:13:57;103173.09;;;9.55;100.00
36726;BME280;44936;52.086;5.150;2023-04-19T08:16:23;103141.66;;;9.55;100.00
36726;BME280;44936;52.086;5.150;2023-04-19T08:18:48;103154.09;;;9.61;100.00
36726;BME280;44936;52.086;5.150;2023-04-19T08:21:16;103165.69;;;9.66;100.00
36726;BME280;44936;52.086;5.150;2023-04-19T08:23:41;103131.56;;;9.64;100.00
36726;BME280;44936;52.086;5.150;2023-04-19T08:26:07;103113.41;;;9.69;100.00
36726;BME280;44936;52.086;5.150;2023-04-19T08:28:32;103118.94;;;9.75;100.00
36726;BME280;44936;52.086;5.150;2023-04-19T08:30:58;103110.34;;;9.79;100.00
36726;BME280;44936;52.086;5.150;2023-04-19T08:33:23;103092.09;;;9.81;100.00
36726;BME280;44936;52.086;5.150;2023-04-19T08:35:48;103076.53;;;9.85;100.00
36726;BME280;44936;52.086;5.150;2023-04-19T08:38:14;103107.16;;;9.86;100.00
36726;BME280;44936;52.086;5.150;2023-04-19T08:40:45;103065.06;;;9.82;100.00
36726;BME280;44936;52.086;5.150;2023-04-19T08:43:11;103092.53;;;9.91;100.00
36726;BME280;44936;52.086;5.150;2023-04-19T08:45:37;103107.53;;;9.96;100.00
36726;BME280;44936;52.086;5.150;2023-04-19T08:48:03;103116.56;;;10.02;100.00
36726;BME280;44936;52.086;5.150;2023-04-19T08:50:30;103114.00;;;10.04;100.00
36726;BME280;44936;52.086;5.150;2023-04-19T08:52:58;103110.69;;;10.08;100.00
36726;BME280;44936;52.086;5.150;2023-04-19T08:55:24;103064.25;;;10.05;100.00
36726;BME280;44936;52.086;5.150;2023-04-19T08:57:50;103021.41;;;10.05;100.00
36726;BME280;44936;52.086;5.150;2023-04-19T09:00:15;103026.06;;;10.12;100.00
36726;BME280;44936;52.086;5.150;2023-04-19T09:02:49;103029.03;;;10.21;100.00
36726;BME280;44936;52.086;5.150;2023-04-19T09:05:16;103028.28;;;10.24;100.00
36726;BME280;44936;52.086;5.150;2023-04-19T09:07:43;103066.41;;;10.36;100.00
36726;BME280;44936;52.086;5.150;2023-04-19T09:10:13;103026.94;;;10.33;100.00
36726;BME280;44936;52.086;5.150;2023-04-19T09:12:40;103031.22;;;10.31;100.00
36726;BME280;44936;52.086;5.150;2023-04-19T09:15:07;103070.44;;;10.50;100.00
36726;BME280;44936;52.086;5.150;2023-04-19T09:17:34;103064.16;;;10.45;100.00
36726;BME280;44936;52.086;5.150;2023-04-19T09:20:00;103042.22;;;10.43;100.00
36726;BME280;44936;52.086;5.150;2023-04-19T09:22:26;103067.22;;;10.58;100.00
36726;BME280;44936;52.086;5.150;2023-04-19T09:24:52;103060.56;;;10.66;100.00
36726;BME280;44936;52.086;5.150;2023-04-19T09:27:32;103019.28;;;10.62;100.00
36726;BME280;44936;52.086;5.150;2023-04-19T09:29:59;102966.69;;;10.59;100.00
36726;BME280;44936;52.086;5.150;2023-04-19T09:32:26;102975.03;;;10.71;100.00
36726;BME280;44936;52.086;5.150;2023-04-19T09:34:53;102964.72;;;10.77;100.00
36726;BME280;44936;52.086;5.150;2023-04-19T09:37:19;103009.63;;;10.85;100.00
36726;BME280;44936;52.086;5.150;2023-04-19T09:39:45;102987.03;;;10.88;100.00
36726;BME280;44936;52.086;5.150;2023-04-19T09:42:10;102969.41;;;10.86;100.00
36726;BME280;44936;52.086;5.150;2023-04-19T09:44:36;102972.31;;;10.93;100.00
36726;BME280;44936;52.086;5.150;2023-04-19T09:47:01;102997.84;;;10.97;100.00
36726;BME280;44936;52.086;5.150;2023-04-19T09:49:27;102970.63;;;10.95;100.00
36726;BME280;44936;52.086;5.150;2023-04-19T09:51:53;103014.66;;;11.02;100.00
36726;BME280;44936;52.086;5.150;2023-04-19T09:54:22;103002.31;;;11.00;100.00
36726;BME280;44936;52.086;5.150;2023-04-19T09:56:48;102964.03;;;11.06;100.00
36726;BME280;44936;52.086;5.150;2023-04-19T09:59:14;103005.25;;;11.09;100.00
36726;BME280;44936;52.086;5.150;2023-04-19T10:02:00;102981.81;;;11.14;100.00
36726;BME280;44936;52.086;5.150;2023-04-19T10:04:27;102981.06;;;11.18;100.00
36726;BME280;44936;52.086;5.150;2023-04-19T10:06:53;102978.91;;;11.06;100.00
36726;BME280;44936;52.086;5.150;2023-04-19T10:09:22;102976.75;;;11.20;100.00
36726;BME280;44936;52.086;5.150;2023-04-19T10:11:50;102971.03;;;11.31;100.00
36726;BME280;44936;52.086;5.150;2023-04-19T10:14:18;102945.69;;;11.33;100.00
36726;BME280;44936;52.086;5.150;2023-04-19T10:16:45;102946.69;;;11.37;100.00
36726;BME280;44936;52.086;5.150;2023-04-19T10:19:14;102942.47;;;11.42;100.00
36726;BME280;44936;52.086;5.150;2023-04-19T10:21:41;102934.69;;;11.45;100.00
36726;BME280;44936;52.086;5.150;2023-04-19T10:24:12;102935.69;;;11.49;100.00
36726;BME280;44936;52.086;5.150;2023-04-19T10:27:07;102964.03;;;11.57;100.00
36726;BME280;44936;52.086;5.150;2023-04-19T10:29:54;102943.69;;;11.52;100.00
36726;BME280;44936;52.086;5.150;2023-04-19T10:32:19;102949.19;;;11.59;100.00
36726;BME280;44936;52.086;5.150;2023-04-19T10:34:45;102967.75;;;11.66;100.00
36726;BME280;44936;52.086;5.150;2023-04-19T10:37:11;102953.88;;;11.70;100.00
36726;BME280;44936;52.086;5.150;2023-04-19T10:39:42;102918.78;;;11.68;100.00
36726;BME280;44936;52.086;5.150;2023-04-19T10:42:07;102927.00;;;11.78;100.00
36726;BME280;44936;52.086;5.150;2023-04-19T10:44:33;102941.28;;;11.85;100.00
36726;BME280;44936;52.086;5.150;2023-04-19T10:46:58;102920.25;;;11.85;100.00
36726;BME280;44936;52.086;5.150;2023-04-19T10:49:25;102958.25;;;11.96;100.00
36726;BME280;44936;52.086;5.150;2023-04-19T10:51:52;102915.63;;;11.79;100.00
36726;BME280;44936;52.086;5.150;2023-04-19T10:54:36;102932.91;;;11.98;100.00
36726;BME280;44936;52.086;5.150;2023-04-19T10:57:04;102893.38;;;11.95;100.00
36726;BME280;44936;52.086;5.150;2023-04-19T10:59:31;102902.44;;;12.05;100.00
36726;BME280;44936;52.086;5.150;2023-04-19T11:02:02;102908.53;;;12.04;100.00
36726;BME280;44936;52.086;5.150;2023-04-19T11:07:04;102892.22;;;12.15;100.00
36726;BME280;44936;52.086;5.150;2023-04-19T11:09:31;102867.84;;;12.21;100.00
36726;BME280;44936;52.086;5.150;2023-04-19T11:14:36;102830.22;;;12.25;100.00
36726;BME280;44936;52.086;5.150;2023-04-19T11:17:16;102859.44;;;12.36;100.00
36726;BME280;44936;52.086;5.150;2023-04-19T11:22:23;102892.03;;;12.39;100.00
36726;BME280;44936;52.086;5.150;2023-04-19T11:24:49;102842.88;;;12.38;100.00
36726;BME280;44936;52.086;5.150;2023-04-19T11:27:14;102800.88;;;12.43;100.00
36726;BME280;44936;52.086;5.150;2023-04-19T11:29:39;102829.09;;;12.47;100.00
36726;BME280;44936;52.086;5.150;2023-04-19T11:32:05;102847.66;;;12.53;100.00
36726;BME280;44936;52.086;5.150;2023-04-19T11:34:38;102791.28;;;12.45;100.00
36726;BME280;44936;52.086;5.150;2023-04-19T11:37:03;102816.19;;;12.58;100.00
36726;BME280;44936;52.086;5.150;2023-04-19T11:39:28;102793.41;;;12.58;100.00
36726;BME280;44936;52.086;5.150;2023-04-19T11:41:54;102771.44;;;12.58;100.00
36726;BME280;44936;52.086;5.150;2023-04-19T11:44:20;102759.25;;;12.61;100.00
36726;BME280;44936;52.086;5.150;2023-04-19T11:47:03;102756.81;;;12.69;100.00
36726;BME280;44936;52.086;5.150;2023-04-19T11:49:32;102759.38;;;12.66;100.00
36726;BME280;44936;52.086;5.150;2023-04-19T11:52:00;102773.53;;;12.71;100.00
36726;BME280;44936;52.086;5.150;2023-04-19T11:54:26;102690.75;;;12.60;100.00
36726;BME280;44936;52.086;5.150;2023-04-19T11:57:07;102730.06;;;12.88;100.00
36726;BME280;44936;52.086;5.150;2023-04-19T11:59:34;102775.66;;;12.86;100.00
36726;BME280;44936;52.086;5.150;2023-04-19T12:02:08;102801.16;;;12.88;100.00
36726;BME280;44936;52.086;5.150;2023-04-19T12:04:34;102791.66;;;12.93;100.00
36726;BME280;44936;52.086;5.150;2023-04-19T12:07:01;102763.41;;;12.88;100.00
36726;BME280;44936;52.086;5.150;2023-04-19T12:09:26;102745.13;;;12.94;100.00
36726;BME280;44936;52.086;5.150;2023-04-19T12:11:52;102750.59;;;13.01;100.00
36726;BME280;44936;52.086;5.150;2023-04-19T12:14:20;102764.66;;;13.02;100.00
36726;BME280;44936;52.086;5.150;2023-04-19T12:17:09;102672.28;;;12.96;100.00
36726;BME280;44936;52.086;5.150;2023-04-19T12:19:42;102672.50;;;13.05;100.00
36726;BME280;44936;52.086;5.150;2023-04-19T12:22:11;102689.16;;;13.04;100.00
36726;BME280;44936;52.086;5.150;2023-04-19T12:24:38;102719.19;;;13.11;100.00
36726;BME280;44936;52.086;5.150;2023-04-19T12:27:04;102733.09;;;13.05;100.00
36726;BME280;44936;52.086;5.150;2023-04-19T12:29:37;102687.44;;;13.06;100.00
36726;BME280;44936;52.086;5.150;2023-04-19T12:32:03;102693.81;;;13.16;100.00
36726;BME280;44936;52.086;5.150;2023-04-19T12:34:28;102699.03;;;13.13;100.00
36726;BME280;44936;52.086;5.150;2023-04-19T12:36:54;102665.66;;;13.13;100.00
36726;BME280;44936;52.086;5.150;2023-04-19T12:39:20;102635.81;;;13.14;100.00
36726;BME280;44936;52.086;5.150;2023-04-19T12:41:45;102638.69;;;13.25;100.00
36726;BME280;44936;52.086;5.150;2023-04-19T12:44:13;102661.66;;;13.30;100.00
36726;BME280;44936;52.086;5.150;2023-04-19T12:46:39;102644.25;;;13.39;100.00
36726;BME280;44936;52.086;5.150;2023-04-19T12:49:04;102636.38;;;13.40;100.00
36726;BME280;44936;52.086;5.150;2023-04-19T12:51:29;102670.66;;;13.40;100.00